This is the latest recevied weather packets stored in our database for station/object KF4ZNO-13. If no packets are shown the sender has not sent any weather packets the latest 10 day(s).
| Time | Temp. | Humidity | Pressure | Rain* | Wind** | Luminosity | Snow |
|---|---|---|---|---|---|---|---|
| 1777760419 | 21.11° C | 59% | 1015.4 hPa | 0 mm | - | - | - |
| 1777759819 | 21.67° C | 57% | 1015.2 hPa | 0 mm | - | - | - |
| 1777755020 | 21.67° C | 60% | 1014.8 hPa | 0 mm | - | - | - |
| 1777748419 | 21.11° C | 67% | 1015.6 hPa | 0 mm | - | - | - |
| 1777747220 | 20.56° C | 69% | 1015.3 hPa | 0 mm | - | - | - |
| 1777745419 | 20.56° C | 70% | 1015.8 hPa | 0 mm | - | - | - |
| 1777744219 | 19.44° C | 74% | 1015.6 hPa | 0 mm | - | - | - |
| 1777741219 | 17.22° C | 85% | 1015.7 hPa | 0 mm | - | - | - |
| 1777738219 | 16.11° C | 92% | 1015.8 hPa | 0 mm | - | - | - |
| 1777735819 | 13.89° C | 93% | 1015.6 hPa | 0 mm | - | - | - |
| 1777734619 | 13.33° C | 93% | 1015.3 hPa | 0 mm | - | - | - |
| 1777729219 | 12.22° C | 93% | 1014.8 hPa | 0.76 mm | - | - | - |
| 1777722018 | 11.67° C | 93% | 1015.1 hPa | 0.51 mm | - | - | - |
| 1777720840 | 11.67° C | 93% | 1013.3 hPa | 2.54 mm | - | - | - |
| 1777716620 | 12.22° C | 93% | 1013.7 hPa | 1.78 mm | - | - | - |
| 1777708220 | 12.78° C | 92% | 1011.8 hPa | 4.83 mm | - | - | - |
| 1777699860 | 12.78° C | 92% | 1013.6 hPa | 0.51 mm | - | - | - |
| 1777695640 | 12.22° C | 92% | 1015.8 hPa | 2.29 mm | - | - | - |
| 1777695020 | 12.22° C | 92% | 1014.8 hPa | 3.56 mm | - | - | - |
| 1777681819 | 13.89° C | 90% | 1013.5 hPa | 4.57 mm | - | - | - |
| 1777680019 | 15° C | 90% | 1013.4 hPa | 0.76 mm | - | - | - |
| 1777676419 | 16.67° C | 89% | 1013.6 hPa | 0.25 mm | - | - | - |
| 1777675219 | 17.22° C | 89% | 1013.3 hPa | 0 mm | - | - | - |
| 1777674641 | 17.22° C | 89% | 1013.1 hPa | 0 mm | - | - | - |
| 1777673419 | 17.22° C | 89% | 1013.4 hPa | 0 mm | - | - | - |
* Rain latest hour (hover to see other rain measurements)
** Current wind speed in m/s (hover to see current wind gust speed)